Time;durP1;ratioP1;P1;durP2;ratioP2;P2;SDS_P1;SDS_P2;PMS_P1;PMS_P2;Temp;Humidity;BMP_temperature;BMP_pressure;BME280_temperature;BME280_humidity;BME280_pressure;Samples;Min_cycle;Max_cycle;Signal;HPM_P1;HPM_P2
2022/05/17 00:01:38;;;;;;;3.85;1.35;;;16.20;76.90;;;;;;4878746;28;96534;-50
2022/05/17 00:04:08;;;;;;;4.80;1.40;;;16.30;76.80;;;;;;4886992;28;96695;-49
2022/05/17 00:06:41;;;;;;;4.78;1.42;;;16.30;76.80;;;;;;4887705;28;95719;-50
2022/05/17 00:09:16;;;;;;;2.92;1.30;;;16.40;77.40;;;;;;4888347;28;95746;-50
2022/05/17 00:11:50;;;;;;;5.80;2.05;;;16.40;76.80;;;;;;4887377;28;96163;-46
2022/05/17 00:14:21;;;;;;;4.20;1.60;;;16.40;76.80;;;;;;4886629;28;95890;-51
2022/05/17 00:16:52;;;;;;;2.78;1.38;;;16.40;76.70;;;;;;4870983;28;97104;-50
2022/05/17 00:19:24;;;;;;;3.28;1.40;;;16.40;76.80;;;;;;4884570;28;96608;-50
2022/05/17 00:21:55;;;;;;;2.30;1.33;;;16.40;76.80;;;;;;4886185;28;98781;-47
2022/05/17 00:24:27;;;;;;;;;;;16.40;76.80;;;;;;4885043;28;96547;-48
2022/05/17 00:26:58;;;;;;;3.15;1.75;;;16.40;76.90;;;;;;4888169;28;95360;-52
2022/05/17 00:29:29;;;;;;;2.55;1.50;;;16.40;76.80;;;;;;4896276;28;96179;-49
2022/05/17 00:32:03;;;;;;;2.28;1.00;;;16.40;76.80;;;;;;4880004;28;95848;-47
2022/05/17 00:34:35;;;;;;;2.42;1.55;;;16.40;76.70;;;;;;4885028;28;95875;-59
2022/05/17 00:37:06;;;;;;;2.03;1.33;;;16.40;76.70;;;;;;4885983;28;96552;-50
2022/05/17 00:39:37;;;;;;;2.25;1.33;;;16.50;76.80;;;;;;4886941;28;96283;-61
2022/05/17 00:42:07;;;;;;;3.60;1.05;;;16.50;76.80;;;;;;4885504;28;95917;-50
2022/05/17 00:44:44;;;;;;;7.03;1.52;;;16.50;73.20;;;;;;4887246;28;96286;-55
2022/05/17 00:47:27;;;;;;;3.65;1.30;;;16.50;76.70;;;;;;4882390;28;95657;-50
2022/05/17 00:50:04;;;;;;;3.40;1.10;;;16.50;76.70;;;;;;4890219;28;96227;-48
2022/05/17 00:52:43;;;;;;;2.72;1.42;;;16.60;76.60;;;;;;4903911;28;97743;-50
2022/05/17 00:55:26;;;;;;;4.40;0.95;;;16.60;76.50;;;;;;4890147;28;95876;-54
2022/05/17 00:58:03;;;;;;;2.58;1.10;;;16.70;76.60;;;;;;4889476;28;96018;-52
2022/05/17 01:00:43;;;;;;;3.10;1.00;;;16.80;76.50;;;;;;4880406;28;96770;-44
2022/05/17 01:03:18;;;;;;;2.88;0.90;;;16.90;76.40;;;;;;4888136;28;95668;-46
2022/05/17 01:05:54;;;;;;;1.17;0.90;;;16.90;76.30;;;;;;4890518;28;95922;-45
2022/05/17 01:08:26;;;;;;;1.48;1.00;;;17.00;76.40;;;;;;4889774;28;95859;-48
2022/05/17 01:10:56;;;;;;;2.28;0.93;;;17.00;76.40;;;;;;4890041;28;96500;-50
2022/05/17 01:16:18;;;;;;;2.15;0.82;;;17.10;76.50;;;;;;4876115;28;95999;-48
2022/05/17 01:18:52;;;;;;;2.45;0.88;;;17.00;75.50;;;;;;4886948;28;95876;-49
2022/05/17 01:21:24;;;;;;;1.77;1.05;;;16.90;75.60;;;;;;4888944;28;96635;-51
2022/05/17 01:23:55;;;;;;;3.08;1.25;;;16.90;75.70;;;;;;4889128;28;95364;-50
2022/05/17 01:26:30;;;;;;;13.27;1.27;;;16.90;75.90;;;;;;4889691;28;95593;-44
2022/05/17 01:29:02;;;;;;;3.15;1.00;;;17.00;75.80;;;;;;4887095;28;95909;-47
2022/05/17 01:31:35;;;;;;;3.00;1.13;;;17.00;75.70;;;;;;4880723;28;95910;-44
2022/05/17 01:34:13;;;;;;;5.07;0.90;;;17.20;72.60;;;;;;4886500;28;96522;-45
2022/05/17 01:36:44;;;;;;;2.70;1.38;;;17.20;75.60;;;;;;4889112;28;96330;-45
2022/05/17 01:39:16;;;;;;;3.08;1.02;;;17.30;75.50;;;;;;4889093;28;95375;-45
2022/05/17 01:41:46;;;;;;;1.27;0.70;;;17.30;75.00;;;;;;4887942;28;96866;-43
2022/05/17 01:44:17;;;;;;;1.33;0.73;;;17.40;75.10;;;;;;4888417;28;95914;-47
2022/05/17 01:46:51;;;;;;;2.65;0.90;;;17.40;75.10;;;;;;4881736;28;96046;-47
2022/05/17 01:49:24;;;;;;;2.08;1.00;;;17.50;74.90;;;;;;4889359;28;95333;-43
2022/05/17 01:51:55;;;;;;;1.67;0.90;;;17.50;74.80;;;;;;4889873;28;95927;-41
2022/05/17 01:54:25;;;;;;;5.38;0.90;;;17.50;74.80;;;;;;4889471;28;95701;-46
2022/05/17 01:56:57;;;;;;;1.58;0.80;;;17.50;74.70;;;;;;4889638;28;95382;-45
2022/05/17 01:59:28;;;;;;;4.90;1.00;;;17.50;74.80;;;;;;4901066;28;98288;-44
2022/05/17 02:01:58;;;;;;;1.20;0.73;;;17.50;74.90;;;;;;4881820;28;96447;-49
2022/05/17 02:04:30;;;;;;;2.88;0.90;;;17.60;74.70;;;;;;4884472;28;96756;-46
2022/05/17 02:07:03;;;;;;;1.33;1.15;;;17.70;74.40;;;;;;4887205;28;95711;-48
2022/05/17 02:09:38;;;;;;;0.98;0.57;;;17.80;74.20;;;;;;4889257;28;95821;-50
2022/05/17 02:12:10;;;;;;;2.75;0.80;;;17.90;74.10;;;;;;4888311;28;96742;-48
2022/05/17 02:14:41;;;;;;;4.60;1.80;;;17.90;73.90;;;;;;4887641;28;95517;-48
2022/05/17 02:17:13;;;;;;;4.63;2.38;;;18.00;74.00;;;;;;4874304;28;97830;-48
2022/05/17 02:19:44;;;;;;;6.93;2.92;;;18.10;74.10;;;;;;4887757;28;97363;-48
2022/05/17 02:22:15;;;;;;;7.63;4.43;;;18.20;74.00;;;;;;4886670;28;96652;-47
2022/05/17 02:24:48;;;;;;;5.95;3.40;;;18.20;73.80;;;;;;4887323;28;96199;-48
2022/05/17 02:27:19;;;;;;;8.48;4.65;;;18.30;73.80;;;;;;4888310;28;96137;-45
2022/05/17 02:29:51;;;;;;;8.20;5.15;;;18.30;73.90;;;;;;4888164;28;95528;-51
2022/05/17 02:32:25;;;;;;;7.88;5.72;;;18.40;74.20;;;;;;4882747;28;97941;-46
2022/05/17 02:34:57;;;;;;;11.32;5.50;;;18.40;74.60;;;;;;4888880;28;96562;-42
2022/05/17 02:37:28;;;;;;;9.45;5.75;;;18.50;74.90;;;;;;4886319;28;95936;-43
2022/05/17 02:39:59;;;;;;;9.93;4.88;;;18.60;74.90;;;;;;4887838;28;97037;-43
2022/05/17 02:42:29;;;;;;;9.48;4.57;;;18.50;74.80;;;;;;4888445;28;96417;-46
2022/05/17 02:45:03;;;;;;;8.75;5.03;;;18.60;71.90;;;;;;4888288;28;96214;-41
2022/05/17 02:47:35;;;;;;;8.68;4.85;;;18.60;74.50;;;;;;4883942;28;96908;-53
2022/05/17 02:50:09;;;;;;;9.13;4.55;;;18.70;74.70;;;;;;4888884;28;95989;-43
2022/05/17 02:52:40;;;;;;;8.20;4.82;;;18.70;74.40;;;;;;4888274;28;96506;-52
2022/05/17 02:55:13;;;;;;;9.23;4.93;;;18.80;74.70;;;;;;4887059;28;95898;-50
2022/05/17 02:57:45;;;;;;;8.70;5.18;;;18.80;74.70;;;;;;4887932;28;95824;-42
2022/05/17 03:00:16;;;;;;;9.65;4.82;;;18.90;74.60;;;;;;4888930;28;96006;-44
2022/05/17 03:02:47;;;;;;;9.13;5.22;;;19.00;74.50;;;;;;4886670;28;97407;-52
2022/05/17 03:05:19;;;;;;;;;;;19.00;74.40;;;;;;4885653;28;96538;-46
2022/05/17 03:07:52;;;;;;;7.72;4.35;;;19.10;74.00;;;;;;4887335;28;95864;-49
2022/05/17 03:10:24;;;;;;;8.48;4.50;;;19.10;73.60;;;;;;4886395;28;95892;-42
2022/05/17 03:12:56;;;;;;;8.45;4.32;;;19.10;73.60;;;;;;4884520;28;96771;-43
2022/05/17 03:15:28;;;;;;;8.95;4.70;;;19.20;73.50;;;;;;4871524;28;96453;-43
2022/05/17 03:17:59;;;;;;;8.18;4.18;;;19.20;73.30;;;;;;4879485;28;96178;-42
2022/05/17 03:20:29;;;;;;;5.72;3.90;;;19.20;73.00;;;;;;4887472;28;96100;-42
2022/05/17 03:23:01;;;;;;;6.40;3.95;;;19.20;73.10;;;;;;4884823;28;97491;-46
2022/05/17 03:25:32;;;;;;;5.70;4.13;;;19.30;73.20;;;;;;4885807;28;96674;-42
2022/05/17 03:28:04;;;;;;;8.27;3.40;;;19.20;73.10;;;;;;4886982;28;95905;-46
2022/05/17 03:30:35;;;;;;;7.78;4.55;;;19.30;73.40;;;;;;4877316;28;97611;-43
2022/05/17 03:33:06;;;;;;;6.38;3.67;;;19.30;73.20;;;;;;4883033;28;96963;-44
2022/05/17 03:35:37;;;;;;;6.70;4.53;;;19.30;72.70;;;;;;4883752;28;95884;-44
2022/05/17 03:38:09;;;;;;;7.13;3.95;;;19.20;72.50;;;;;;4881919;28;96064;-44
2022/05/17 03:40:40;;;;;;;7.55;3.88;;;19.20;72.30;;;;;;4882852;28;95661;-46
2022/05/17 03:43:10;;;;;;;6.17;3.93;;;19.20;72.50;;;;;;4881269;28;98296;-44
2022/05/17 03:45:41;;;;;;;;;;;19.10;72.60;;;;;;4873834;28;97607;-47
2022/05/17 03:48:13;;;;;;;6.03;3.63;;;19.10;72.50;;;;;;4885196;28;95738;-43
2022/05/17 03:50:45;;;;;;;7.60;3.45;;;19.00;72.70;;;;;;4883679;28;95830;-42
2022/05/17 03:53:17;;;;;;;4.80;3.15;;;19.00;72.80;;;;;;4883831;28;96723;-44
2022/05/17 03:55:47;;;;;;;;;;;19.10;72.90;;;;;;4885587;28;95932;-43
2022/05/17 03:58:19;;;;;;;4.80;2.60;;;19.10;72.80;;;;;;4885013;28;96467;-47
2022/05/17 04:00:49;;;;;;;;;;;19.20;72.80;;;;;;4881928;28;96239;-47
2022/05/17 04:03:20;;;;;;;5.70;2.92;;;19.20;72.80;;;;;;4884012;28;95916;-45
2022/05/17 04:05:53;;;;;;;5.78;3.17;;;19.30;73.00;;;;;;4882010;28;96412;-46
2022/05/17 04:08:24;;;;;;;4.82;2.80;;;19.30;73.10;;;;;;4881780;28;95858;-46
2022/05/17 04:10:56;;;;;;;4.38;2.88;;;19.40;73.20;;;;;;4884447;28;95351;-44
2022/05/17 04:13:29;;;;;;;4.55;2.70;;;19.40;73.20;;;;;;4884878;28;96673;-40
2022/05/17 04:16:02;;;;;;;5.40;2.78;;;19.40;73.20;;;;;;4873955;28;96015;-46
2022/05/17 04:18:33;;;;;;;4.85;2.75;;;19.40;73.20;;;;;;4880787;28;95809;-45
2022/05/17 04:21:05;;;;;;;4.35;2.33;;;19.50;73.30;;;;;;4886519;28;95870;-43
2022/05/17 04:23:37;;;;;;;3.33;2.50;;;19.50;73.30;;;;;;4883097;28;95958;-43
2022/05/17 04:26:09;;;;;;;3.35;2.30;;;19.50;73.50;;;;;;4881845;28;96030;-45
2022/05/17 04:28:40;;;;;;;3.15;2.33;;;19.60;73.50;;;;;;4884950;28;95886;-52
2022/05/17 04:31:12;;;;;;;2.60;2.03;;;19.60;73.60;;;;;;4879175;28;96655;-40
2022/05/17 04:33:45;;;;;;;3.88;2.63;;;19.60;73.90;;;;;;4884407;28;97652;-46
2022/05/17 04:36:16;;;;;;;3.33;2.10;;;19.70;73.70;;;;;;4885744;28;95912;-45
2022/05/17 04:38:48;;;;;;;6.30;2.50;;;19.70;73.50;;;;;;4886459;28;95984;-44
2022/05/17 04:41:19;;;;;;;4.93;2.30;;;19.60;71.80;;;;;;4883235;28;95834;-45
2022/05/17 04:43:52;;;;;;;4.45;2.53;;;19.40;71.90;;;;;;4884179;28;96407;-45
2022/05/17 04:46:23;;;;;;;4.93;2.72;;;19.40;72.20;;;;;;4881165;28;96634;-44
2022/05/17 04:48:53;;;;;;;3.77;2.43;;;19.30;72.50;;;;;;4887347;28;96468;-44
2022/05/17 04:51:25;;;;;;;5.20;2.45;;;19.20;72.50;;;;;;4885608;28;95712;-45
2022/05/17 04:53:56;;;;;;;3.35;1.75;;;19.20;72.70;;;;;;4886656;28;96757;-44
2022/05/17 04:56:28;;;;;;;3.28;2.17;;;19.10;72.70;;;;;;4885646;28;95720;-43
2022/05/17 04:58:58;;;;;;;3.78;2.20;;;19.10;72.70;;;;;;4885719;28;95736;-44
2022/05/17 05:01:29;;;;;;;4.22;2.47;;;19.10;72.70;;;;;;4882227;28;95866;-43
2022/05/17 05:04:00;;;;;;;4.45;2.45;;;19.00;72.70;;;;;;4885714;28;97502;-43
2022/05/17 05:06:31;;;;;;;;;;;18.90;72.80;;;;;;4886872;28;95658;-42
2022/05/17 05:09:03;;;;;;;2.90;1.88;;;18.90;73.00;;;;;;4887791;28;96232;-43
2022/05/17 05:11:35;;;;;;;4.28;2.15;;;18.80;72.90;;;;;;4885407;28;96893;-43
2022/05/17 05:14:06;;;;;;;3.22;1.77;;;18.80;72.90;;;;;;4885058;28;97415;-42
2022/05/17 05:16:37;;;;;;;;;;;18.80;72.90;;;;;;4873220;28;96615;-43
2022/05/17 05:19:08;;;;;;;;;;;18.80;72.90;;;;;;4883763;28;95602;-43
2022/05/17 05:21:40;;;;;;;2.42;1.70;;;18.80;72.80;;;;;;4884927;28;95722;-43
2022/05/17 05:24:12;;;;;;;2.45;2.13;;;18.80;73.00;;;;;;4883898;28;97381;-43
2022/05/17 05:26:43;;;;;;;4.15;1.85;;;18.80;73.10;;;;;;4885848;28;95716;-41
2022/05/17 05:29:14;;;;;;;4.15;1.95;;;18.70;73.10;;;;;;4884687;28;95419;-42
2022/05/17 05:31:47;;;;;;;4.30;2.25;;;18.70;73.40;;;;;;4874390;28;95996;-46
2022/05/17 05:34:18;;;;;;;;;;;18.80;73.30;;;;;;4888611;28;96188;-43
2022/05/17 05:36:50;;;;;;;2.13;1.70;;;18.80;73.20;;;;;;4890008;28;95694;-40
2022/05/17 05:39:21;;;;;;;;;;;18.90;73.20;;;;;;4890096;28;95873;-46
2022/05/17 05:41:53;;;;;;;2.08;1.58;;;18.90;73.00;;;;;;4890686;28;96622;-41
2022/05/17 05:44:23;;;;;;;4.40;1.73;;;18.90;73.00;;;;;;4889628;28;96018;-43
2022/05/17 05:46:53;;;;;;;3.33;1.95;;;18.90;72.90;;;;;;4882295;28;95932;-44
2022/05/17 05:49:23;;;;;;;2.80;1.63;;;19.00;69.90;;;;;;4889288;28;95971;-43
2022/05/17 05:51:55;;;;;;;4.25;2.03;;;18.90;72.80;;;;;;4890208;28;95545;-47
2022/05/17 05:54:29;;;;;;;3.58;2.13;;;18.90;72.80;;;;;;4889178;28;95930;-44
2022/05/17 05:57:03;;;;;;;2.38;1.65;;;18.90;72.80;;;;;;4888030;28;95918;-47
2022/05/17 05:59:34;;;;;;;2.80;1.77;;;18.90;72.90;;;;;;4889393;28;95797;-45
2022/05/17 06:02:05;;;;;;;3.88;2.38;;;18.90;72.90;;;;;;4883277;28;96551;-50
2022/05/17 06:04:37;;;;;;;3.45;1.77;;;18.90;72.90;;;;;;4889231;28;96004;-46
2022/05/17 06:07:09;;;;;;;2.22;1.75;;;18.90;72.90;;;;;;4888171;28;95996;-47
2022/05/17 06:09:42;;;;;;;2.58;1.45;;;18.90;72.90;;;;;;4889293;28;95861;-43
2022/05/17 06:12:12;;;;;;;3.58;2.50;;;18.80;72.90;;;;;;4888053;28;96086;-43
2022/05/17 06:14:44;;;;;;;4.20;1.52;;;18.80;72.70;;;;;;4885588;28;97309;-42
2022/05/17 06:17:14;;;;;;;;;;;18.70;72.90;;;;;;4884175;28;95856;-42
2022/05/17 06:19:45;;;;;;;2.22;1.40;;;18.70;72.80;;;;;;4889539;28;95942;-41
2022/05/17 06:22:17;;;;;;;4.70;1.98;;;18.70;72.80;;;;;;4889550;28;96293;-41
2022/05/17 06:24:48;;;;;;;3.75;1.83;;;18.70;72.90;;;;;;4888364;28;96192;-42
2022/05/17 06:27:25;;;;;;;2.42;1.40;;;18.70;73.00;;;;;;4887137;28;95976;-41
2022/05/17 06:29:58;;;;;;;1.92;1.58;;;18.70;72.90;;;;;;4886306;28;96038;-42
2022/05/17 06:32:29;;;;;;;2.63;1.52;;;18.80;72.90;;;;;;4882982;28;96148;-41
2022/05/17 06:35:00;;;;;;;2.45;1.40;;;18.70;72.80;;;;;;4888195;28;97119;-43
2022/05/17 06:37:32;;;;;;;1.48;1.38;;;18.70;73.40;;;;;;4887287;28;96494;-44
2022/05/17 06:40:05;;;;;;;1.83;1.40;;;18.70;73.00;;;;;;4887782;28;95874;-43
2022/05/17 06:42:35;;;;;;;2.17;1.52;;;18.60;73.00;;;;;;4888865;28;95826;-45
2022/05/17 06:45:08;;;;;;;5.32;1.70;;;18.60;73.00;;;;;;4878473;28;96913;-42
2022/05/17 06:47:38;;;;;;;1.83;1.42;;;18.60;73.20;;;;;;4887004;28;96627;-40
2022/05/17 06:50:10;;;;;;;5.05;1.75;;;18.60;73.10;;;;;;4888829;28;95916;-45
2022/05/17 06:52:44;;;;;;;2.47;1.60;;;18.60;73.10;;;;;;4888365;28;95759;-47
2022/05/17 06:55:15;;;;;;;3.47;1.20;;;18.60;73.10;;;;;;4888864;28;95967;-42
2022/05/17 06:57:48;;;;;;;2.45;1.50;;;18.60;73.00;;;;;;4887974;28;96717;-40
2022/05/17 07:00:20;;;;;;;1.73;1.23;;;18.60;73.10;;;;;;4883806;28;97304;-42
2022/05/17 07:02:52;;;;;;;1.63;1.17;;;18.60;73.30;;;;;;4884746;28;96062;-40
2022/05/17 07:05:23;;;;;;;3.90;1.50;;;18.60;73.30;;;;;;4887548;28;96453;-46
2022/05/17 07:07:54;;;;;;;;;;;18.60;73.30;;;;;;4887743;28;95730;-42
2022/05/17 07:13:16;;;;;;;3.17;1.55;;;18.60;73.10;;;;;;4888479;28;96033;-42
2022/05/17 07:15:50;;;;;;;1.42;1.15;;;18.60;73.10;;;;;;4882551;28;97060;-50
2022/05/17 07:18:23;;;;;;;2.38;1.58;;;18.60;73.10;;;;;;4883750;28;95892;-42
2022/05/17 07:20:54;;;;;;;3.88;1.55;;;18.60;73.10;;;;;;4886569;28;95914;-41
2022/05/17 07:23:26;;;;;;;2.60;1.58;;;18.60;73.10;;;;;;4887452;28;95940;-42
2022/05/17 07:25:58;;;;;;;2.13;1.00;;;18.60;73.20;;;;;;4887828;28;95967;-43
2022/05/17 07:28:30;;;;;;;2.92;1.17;;;18.70;73.10;;;;;;4886896;28;96056;-44
2022/05/17 07:31:00;;;;;;;3.60;1.20;;;18.70;73.10;;;;;;4881136;28;96023;-43
2022/05/17 07:33:34;;;;;;;3.65;1.60;;;18.60;72.90;;;;;;4902409;28;98280;-43
2022/05/17 07:36:07;;;;;;;2.38;1.85;;;18.60;73.00;;;;;;4889165;28;96353;-43
2022/05/17 07:38:39;;;;;;;3.03;1.02;;;18.60;73.50;;;;;;4888144;28;98050;-42
2022/05/17 07:41:10;;;;;;;;;;;18.60;73.40;;;;;;4888855;28;95823;-45
2022/05/17 07:43:40;;;;;;;2.83;1.40;;;18.60;72.90;;;;;;4885945;28;95675;-42
2022/05/17 07:46:11;;;;;;;2.10;1.13;;;18.60;73.00;;;;;;4881929;28;96062;-42
2022/05/17 07:48:41;;;;;;;1.93;1.10;;;18.60;73.00;;;;;;4887512;28;95542;-44
2022/05/17 07:51:16;;;;;;;3.28;1.63;;;18.50;72.90;;;;;;4886910;28;95908;-42
2022/05/17 07:53:46;;;;;;;2.60;1.10;;;18.50;72.80;;;;;;4884003;28;96885;-43
2022/05/17 07:56:18;;;;;;;;;;;18.50;72.90;;;;;;4887636;28;96019;-42
2022/05/17 07:58:53;;;;;;;1.40;1.20;;;18.50;72.80;;;;;;4886970;28;96306;-42
2022/05/17 08:01:28;;;;;;;1.55;1.17;;;18.50;72.80;;;;;;4880429;28;97717;-41
2022/05/17 08:04:00;;;;;;;1.80;1.33;;;18.50;72.80;;;;;;4886444;28;95771;-41
2022/05/17 08:06:31;;;;;;;2.60;1.40;;;18.40;72.90;;;;;;4884854;28;96734;-41
2022/05/17 08:09:03;;;;;;;2.95;1.38;;;18.40;72.90;;;;;;4883849;28;96540;-41
2022/05/17 08:11:35;;;;;;;2.33;1.15;;;18.40;73.00;;;;;;4886417;28;96169;-42
2022/05/17 08:14:06;;;;;;;1.95;1.02;;;18.40;73.10;;;;;;4885631;28;95786;-41
2022/05/17 08:16:42;;;;;;;3.28;1.50;;;18.40;73.00;;;;;;4886859;28;96497;-42
2022/05/17 08:19:15;;;;;;;3.65;1.70;;;18.40;73.10;;;;;;4881183;28;96995;-44
2022/05/17 08:21:46;;;;;;;6.10;2.03;;;18.30;73.00;;;;;;4884740;28;95595;-41
2022/05/17 08:24:18;;;;;;;8.32;4.05;;;18.30;73.70;;;;;;4884978;28;95821;-42
2022/05/17 08:29:38;;;;;;;10.90;5.93;;;18.30;73.30;;;;;;4885099;28;96677;-42
2022/05/17 08:35:01;;;;;;;16.00;8.10;;;18.30;70.70;;;;;;4887467;28;95881;-42
2022/05/17 08:37:33;;;;;;;18.00;9.05;;;18.20;74.00;;;;;;4882644;28;96471;-42
2022/05/17 08:40:04;;;;;;;15.45;8.45;;;18.20;74.10;;;;;;4884216;28;96494;-41
2022/05/17 08:42:52;;;;;;;16.67;7.85;;;18.20;74.30;;;;;;4882555;28;95292;-42
2022/05/17 08:45:34;;;;;;;21.80;8.65;;;18.20;74.40;;;;;;4883665;28;96289;-42
2022/05/17 08:48:17;;;;;;;17.67;8.32;;;18.30;74.50;;;;;;4882397;28;103192;-41
2022/05/17 08:50:49;;;;;;;15.02;7.43;;;18.20;74.50;;;;;;4885618;28;97705;-45
2022/05/17 08:53:21;;;;;;;13.52;6.70;;;18.20;74.50;;;;;;4883752;28;95920;-42
2022/05/17 08:55:52;;;;;;;18.23;7.90;;;18.20;74.50;;;;;;4885091;28;95751;-41
2022/05/17 08:58:31;;;;;;;19.37;7.90;;;18.20;74.50;;;;;;4882303;28;96068;-42
2022/05/17 09:01:14;;;;;;;13.85;6.38;;;18.10;74.50;;;;;;4876824;28;97917;-43
2022/05/17 09:04:10;;;;;;;17.27;7.47;;;18.10;74.60;;;;;;4882741;28;95790;-42
2022/05/17 09:06:47;;;;;;;10.27;5.90;;;18.00;74.70;;;;;;4883209;28;96106;-42
2022/05/17 09:09:36;;;;;;;10.88;6.00;;;18.00;75.40;;;;;;4885010;28;96293;-42
2022/05/17 09:12:40;;;;;;;11.55;6.57;;;18.00;75.00;;;;;;4885337;28;96285;-42
2022/05/17 09:15:14;;;;;;;11.55;5.85;;;17.90;75.00;;;;;;4877168;28;96646;-42
2022/05/17 09:17:47;;;;;;;9.20;5.68;;;17.90;74.90;;;;;;4877346;28;96120;-42
2022/05/17 09:20:26;;;;;;;12.73;6.18;;;17.90;75.00;;;;;;4885044;28;95905;-42
2022/05/17 09:22:58;;;;;;;10.63;5.03;;;17.90;75.00;;;;;;4884716;28;96092;-42
2022/05/17 09:25:54;;;;;;;13.20;6.57;;;17.90;75.20;;;;;;4886415;28;95924;-42
2022/05/17 09:28:29;;;;;;;11.00;5.95;;;17.80;75.20;;;;;;4885806;28;95809;-44
2022/05/17 09:31:25;;;;;;;7.60;4.70;;;17.80;75.10;;;;;;4880741;28;96267;-42
2022/05/17 09:33:58;;;;;;;12.07;5.18;;;17.80;75.20;;;;;;4885229;28;96625;-42
2022/05/17 09:36:45;;;;;;;7.22;3.88;;;17.70;75.00;;;;;;4884749;28;95384;-42
2022/05/17 09:39:23;;;;;;;9.82;5.10;;;17.80;75.00;;;;;;4885488;28;96527;-43
2022/05/17 09:41:57;;;;;;;7.53;4.05;;;17.80;75.00;;;;;;4884746;28;97013;-42
2022/05/17 09:44:44;;;;;;;5.03;3.67;;;17.90;74.90;;;;;;4884365;28;97030;-42
2022/05/17 09:47:42;;;;;;;8.05;3.88;;;17.80;74.70;;;;;;4884789;28;96035;-42
2022/05/17 09:53:14;;;;;;;7.40;3.83;;;17.90;74.90;;;;;;4890443;28;96682;-43
2022/05/17 09:55:49;;;;;;;10.23;3.83;;;17.90;75.00;;;;;;4890026;28;95660;-42
2022/05/17 09:58:34;;;;;;;7.85;3.85;;;17.90;74.80;;;;;;4887531;28;95767;-42
2022/05/17 10:01:19;;;;;;;7.80;3.75;;;17.90;74.70;;;;;;4882235;28;96249;-43
2022/05/17 10:04:03;;;;;;;5.82;3.05;;;17.90;74.60;;;;;;4887337;28;96754;-44
2022/05/17 10:06:37;;;;;;;6.97;3.60;;;17.90;75.10;;;;;;4897580;28;96142;-44
2022/05/17 10:09:14;;;;;;;6.80;3.05;;;17.90;74.40;;;;;;4885475;28;96025;-44
2022/05/17 10:11:57;;;;;;;5.40;2.67;;;17.90;74.50;;;;;;4887534;28;95882;-44
2022/05/17 10:14:52;;;;;;;5.35;3.00;;;17.90;74.20;;;;;;4887357;28;96775;-43
2022/05/17 10:17:53;;;;;;;7.47;3.60;;;17.90;74.30;;;;;;4872990;28;96061;-44
2022/05/17 10:20:35;;;;;;;5.70;3.03;;;17.90;74.30;;;;;;4885820;28;95787;-43
2022/05/17 10:23:33;;;;;;;5.97;2.97;;;17.90;74.30;;;;;;4884787;28;96878;-43
2022/05/17 10:26:12;;;;;;;2.47;2.10;;;17.90;74.20;;;;;;4885975;28;96963;-43
2022/05/17 10:28:58;;;;;;;5.05;2.53;;;17.90;74.10;;;;;;4885338;28;95991;-43
2022/05/17 10:31:53;;;;;;;5.80;2.83;;;17.90;74.10;;;;;;4882645;28;96203;-43
2022/05/17 10:34:52;;;;;;;12.57;2.50;;;17.90;74.10;;;;;;4889343;28;95933;-45
2022/05/17 10:37:36;;;;;;;3.67;2.33;;;18.00;73.90;;;;;;4888018;28;96242;-42
2022/05/17 10:40:07;;;;;;;3.38;1.98;;;17.90;73.80;;;;;;4896178;28;96269;-43
2022/05/17 10:42:38;;;;;;;4.60;2.10;;;17.90;73.80;;;;;;4887767;28;95375;-43
2022/05/17 10:45:19;;;;;;;5.90;2.83;;;17.90;73.90;;;;;;4884866;28;95965;-43
2022/05/17 10:48:16;;;;;;;4.05;1.85;;;17.90;73.80;;;;;;4888617;28;102457;-43
2022/05/17 10:50:56;;;;;;;2.65;1.63;;;18.00;73.70;;;;;;4889282;28;95938;-42
2022/05/17 10:54:03;;;;;;;3.15;1.88;;;18.00;73.80;;;;;;4889629;28;95429;-43
2022/05/17 10:56:55;;;;;;;3.97;1.40;;;18.00;73.60;;;;;;4879677;28;95841;-44
2022/05/17 10:59:50;;;;;;;3.33;1.35;;;17.90;73.50;;;;;;4885478;28;96564;-44
2022/05/17 11:02:55;;;;;;;4.30;1.60;;;17.90;73.60;;;;;;4881246;28;95702;-44
2022/05/17 11:06:09;;;;;;;3.65;1.50;;;17.90;73.70;;;;;;4887139;28;96142;-44
2022/05/17 11:09:04;;;;;;;4.20;1.50;;;17.90;73.70;;;;;;4886046;28;96339;-43
2022/05/17 11:12:11;;;;;;;2.47;1.40;;;17.90;73.70;;;;;;4885589;28;97738;-43
2022/05/17 11:14:50;;;;;;;2.55;1.23;;;17.90;73.50;;;;;;4886353;28;98116;-43
2022/05/17 11:17:51;;;;;;;2.30;1.05;;;17.90;73.10;;;;;;4874720;28;95927;-45
2022/05/17 11:20:30;;;;;;;3.83;1.48;;;17.90;73.50;;;;;;4887510;28;95679;-45
2022/05/17 11:23:30;;;;;;;4.55;1.50;;;18.00;73.60;;;;;;4885736;28;96428;-43
2022/05/17 11:26:30;;;;;;;4.70;1.55;;;17.90;73.40;;;;;;4886031;28;96529;-44
2022/05/17 11:29:27;;;;;;;2.22;1.00;;;17.90;73.10;;;;;;4884859;28;95795;-44
2022/05/17 11:32:20;;;;;;;1.95;0.95;;;17.90;73.10;;;;;;4878037;28;96660;-43
2022/05/17 11:34:54;;;;;;;2.80;1.27;;;17.90;73.40;;;;;;4884759;28;96098;-43
2022/05/17 11:37:37;;;;;;;2.13;1.33;;;17.90;73.30;;;;;;4882777;28;95873;-44
2022/05/17 11:40:10;;;;;;;1.92;1.40;;;17.90;73.30;;;;;;4885704;28;95879;-44
2022/05/17 11:45:53;;;;;;;1.27;0.87;;;17.90;73.40;;;;;;4881916;28;96007;-43
2022/05/17 11:48:47;;;;;;;0.93;0.85;;;17.80;73.30;;;;;;4884722;28;96061;-43
2022/05/17 11:51:18;;;;;;;1.10;1.00;;;17.80;73.30;;;;;;4887045;28;96475;-43
2022/05/17 11:53:51;;;;;;;3.55;1.00;;;17.80;73.30;;;;;;4887433;28;97117;-43
2022/05/17 11:56:32;;;;;;;3.47;1.23;;;17.70;73.40;;;;;;4886011;28;96111;-43
2022/05/17 11:59:13;;;;;;;4.10;1.30;;;17.70;73.50;;;;;;4884517;28;95784;-43
2022/05/17 12:01:46;;;;;;;2.22;1.00;;;17.70;73.50;;;;;;4880699;28;95739;-44
2022/05/17 12:04:23;;;;;;;2.58;1.20;;;17.60;73.40;;;;;;4886714;28;95930;-44
2022/05/17 12:06:54;;;;;;;1.00;0.80;;;17.70;73.80;;;;;;4886119;28;97035;-41
2022/05/17 12:09:31;;;;;;;2.70;0.90;;;17.80;74.00;;;;;;4886699;28;96480;-49
2022/05/17 12:12:37;;;;;;;1.02;0.80;;;17.90;74.10;;;;;;4887509;28;96665;-43
2022/05/17 12:15:24;;;;;;;1.48;0.73;;;18.10;73.80;;;;;;4885468;28;96036;-40
2022/05/17 12:18:05;;;;;;;1.60;1.00;;;18.20;73.60;;;;;;4877186;28;104075;-42
2022/05/17 12:21:14;;;;;;;0.83;0.80;;;18.40;73.40;;;;;;4885043;28;95676;-44
2022/05/17 12:23:50;;;;;;;1.88;0.65;;;18.50;73.30;;;;;;4887198;28;95340;-47
2022/05/17 12:26:41;;;;;;;1.83;1.05;;;18.60;73.10;;;;;;4886572;28;95930;-42
2022/05/17 12:32:10;;;;;;;1.60;0.82;;;18.80;73.00;;;;;;4882593;28;96730;-43
2022/05/17 12:34:50;;;;;;;1.20;0.70;;;18.90;73.50;;;;;;4889060;28;95219;-50
2022/05/17 12:37:27;;;;;;;1.02;0.65;;;19.00;72.70;;;;;;4889632;28;96249;-45
2022/05/17 12:43:03;;;;;;;0.47;0.47;;;19.10;72.90;;;;;;4889618;28;95825;-50
2022/05/17 12:45:47;;;;;;;2.22;1.08;;;19.30;72.00;;;;;;4886366;28;96192;-50
2022/05/17 12:48:35;;;;;;;0.60;0.60;;;19.40;71.80;;;;;;4892175;28;95863;-42
2022/05/17 12:51:10;;;;;;;0.50;0.50;;;19.40;71.90;;;;;;4890654;28;96424;-52
2022/05/17 12:53:45;;;;;;;1.02;0.70;;;19.50;71.90;;;;;;4891301;28;95364;-46
2022/05/17 12:56:22;;;;;;;0.50;0.50;;;19.50;71.90;;;;;;4891792;28;95500;-53
2022/05/17 12:58:59;;;;;;;0.50;0.50;;;19.50;71.80;;;;;;4891314;28;96021;-54
2022/05/17 13:01:31;;;;;;;0.82;0.82;;;19.60;71.80;;;;;;4885976;28;96381;-54
2022/05/17 13:04:13;;;;;;;2.47;0.60;;;19.70;71.60;;;;;;4892167;28;96360;-51
2022/05/17 13:06:49;;;;;;;0.60;0.60;;;19.80;71.60;;;;;;4891319;28;95292;-52
2022/05/17 13:09:28;;;;;;;0.82;0.80;;;19.80;71.40;;;;;;4888517;28;95889;-53
2022/05/17 13:12:14;;;;;;;1.15;0.90;;;19.90;71.30;;;;;;4886964;28;95847;-44
2022/05/17 13:14:53;;;;;;;0.85;0.70;;;20.00;71.30;;;;;;4888178;28;95937;-46
2022/05/17 13:17:35;;;;;;;0.98;0.60;;;20.00;70.80;;;;;;4876081;28;96763;-54
2022/05/17 13:20:32;;;;;;;0.50;0.50;;;20.10;71.00;;;;;;4890339;28;97876;-52
2022/05/17 13:23:09;;;;;;;0.70;0.68;;;20.10;71.10;;;;;;4889714;28;97191;-49
2022/05/17 13:25:43;;;;;;;0.63;0.63;;;20.10;71.00;;;;;;4890061;28;95360;-56
2022/05/17 13:28:33;;;;;;;0.70;0.70;;;20.20;71.00;;;;;;4889511;28;95779;-53
2022/05/17 13:31:14;;;;;;;0.65;0.63;;;20.20;70.90;;;;;;4883765;28;95997;-55
2022/05/17 13:34:00;;;;;;;0.70;0.70;;;20.30;70.90;;;;;;4890018;28;96120;-47
2022/05/17 13:36:40;;;;;;;0.38;0.38;;;20.40;70.70;;;;;;4889222;28;95469;-46
2022/05/17 13:39:25;;;;;;;0.45;0.43;;;20.40;70.50;;;;;;4889147;28;96019;-45
2022/05/17 13:41:58;;;;;;;0.57;0.57;;;20.40;70.40;;;;;;4889282;28;95638;-47
2022/05/17 13:44:40;;;;;;;0.30;0.30;;;20.50;70.30;;;;;;4888636;28;95897;-51
2022/05/17 13:47:22;;;;;;;0.50;0.50;;;20.50;70.30;;;;;;4883599;28;96144;-46
2022/05/17 13:49:58;;;;;;;0.98;0.70;;;20.50;70.20;;;;;;4887431;28;95870;-56
2022/05/17 13:52:45;;;;;;;0.43;0.40;;;20.60;70.20;;;;;;4891683;28;95734;-53
2022/05/17 13:55:31;;;;;;;0.40;0.40;;;20.60;70.10;;;;;;4892775;28;96725;-56
2022/05/17 13:58:09;;;;;;;0.52;0.52;;;20.70;70.10;;;;;;4893500;28;95763;-51
2022/05/17 14:01:17;;;;;;;0.70;0.50;;;20.70;69.80;;;;;;4883839;28;95395;-40